Time;durP1;ratioP1;P1;durP2;ratioP2;P2;SDS_P1;SDS_P2;PMS_P1;PMS_P2;Temp;Humidity;BMP_temperature;BMP_pressure;BME280_temperature;BME280_humidity;BME280_pressure;Samples;Min_cycle;Max_cycle;Signal;HPM_P1;HPM_P2
2022/05/27 00:00:01;;;;;;;;;;;;;;;17.39;59.44;100633.44;5087531;28;19924;-53
2022/05/27 00:02:30;;;;;;;;;;;;;;;17.34;59.54;100622.41;5093745;28;19924;-54
2022/05/27 00:04:57;;;;;;;;;;;;;;;17.38;59.49;100623.34;5094093;28;19931;-52
2022/05/27 00:07:24;;;;;;;;;;;;;;;17.34;59.89;100613.97;5093695;28;19924;-54
2022/05/27 00:09:51;;;;;;;;;;;;;;;17.28;59.85;100621.03;5093770;28;19931;-55
2022/05/27 00:12:18;;;;;;;;;;;;;;;17.39;59.65;100632.63;5093546;28;19924;-52
2022/05/27 00:14:45;;;;;;;;;;;;;;;17.45;59.66;100615.13;5079251;28;20400;-55
2022/05/27 00:17:14;;;;;;;;;;;;;;;17.43;59.59;100617.47;5073539;28;20387;-55
2022/05/27 00:19:42;;;;;;;;;;;;;;;17.47;59.60;100611.13;5073460;28;19924;-55
2022/05/27 00:22:09;;;;;;;;;;;;;;;17.42;59.78;100603.75;5073474;28;19925;-55
2022/05/27 00:24:39;;;;;;;;;;;;;;;17.30;60.22;100607.41;5073203;28;20311;-55
2022/05/27 00:27:08;;;;;;;;;;;;;;;17.26;60.59;100606.53;5072796;28;20380;-55
2022/05/27 00:29:35;;;;;;;;;;;;;;;17.26;60.45;100603.72;5086590;28;19924;-54
2022/05/27 00:32:02;;;;;;;;;;;;;;;17.28;60.48;100604.13;5093715;28;20284;-53
2022/05/27 00:34:31;;;;;;;;;;;;;;;17.34;60.40;100599.09;5093321;28;19924;-52
2022/05/27 00:36:57;;;;;;;;;;;;;;;17.28;60.63;100592.88;5093327;28;19924;-55
2022/05/27 00:39:25;;;;;;;;;;;;;;;17.30;60.52;100601.78;5093785;28;19924;-53
2022/05/27 00:41:52;;;;;;;;;;;;;;;17.36;60.28;100594.72;5093449;28;19931;-53
2022/05/27 00:44:19;;;;;;;;;;;;;;;17.17;61.00;100595.38;5078493;28;19924;-55
2022/05/27 00:46:46;;;;;;;;;;;;;;;17.23;60.72;100596.78;5073136;28;20284;-52
2022/05/27 00:49:15;;;;;;;;;;;;;;;17.20;60.86;100583.44;5073381;28;19928;-54
2022/05/27 00:51:47;;;;;;;;;;;;;;;17.08;61.24;100585.47;5073014;28;19924;-51
2022/05/27 00:54:16;;;;;;;;;;;;;;;17.15;61.04;100586.47;5073487;28;19935;-51
2022/05/27 00:56:45;;;;;;;;;;;;;;;17.30;61.37;100584.91;5072524;28;19932;-52
2022/05/27 00:59:14;;;;;;;;;;;;;;;17.15;61.86;100580.03;5087981;28;19932;-54
2022/05/27 01:01:43;;;;;;;;;;;;;;;17.14;62.12;100582.03;5092830;28;19924;-55
2022/05/27 01:04:10;;;;;;;;;;;;;;;17.14;62.30;100579.22;5092972;28;20323;-54
2022/05/27 01:06:37;;;;;;;;;;;;;;;17.11;62.19;100582.72;5092705;28;19924;-52
2022/05/27 01:09:06;;;;;;;;;;;;;;;16.96;62.53;100584.28;5093282;28;19928;-52
2022/05/27 01:11:43;;;;;;;;;;;;;;;17.03;63.50;100583.72;5092651;28;19947;-53
2022/05/27 01:14:17;;;;;;;;;;;;;;;16.99;64.70;100579.97;5092449;28;19924;-52
2022/05/27 01:16:49;;;;;;;;;;;;;;;16.94;65.63;100583.81;5092605;28;19928;-54
2022/05/27 01:22:31;;;;;;;;;;;;;;;16.73;66.85;100591.56;5099292;28;20306;-55
2022/05/27 01:25:15;;;;;;;;;;;;;;;16.72;67.43;100578.69;5092763;28;19924;-54
2022/05/27 01:27:57;;;;;;;;;;;;;;;16.64;67.71;100592.53;5085518;28;19931;-54
2022/05/27 01:30:32;;;;;;;;;;;;;;;16.67;67.06;100584.56;5091743;28;19928;-52
2022/05/27 01:33:11;;;;;;;;;;;;;;;16.59;67.16;100589.97;5092927;28;19924;-52
2022/05/27 01:35:44;;;;;;;;;;;;;;;16.51;67.53;100590.91;5092293;28;19931;-52
2022/05/27 01:38:14;;;;;;;;;;;;;;;16.38;68.33;100592.06;5092811;28;19933;-55
2022/05/27 01:40:47;;;;;;;;;;;;;;;16.31;68.72;100583.38;5092178;28;19931;-53
2022/05/27 01:43:17;;;;;;;;;;;;;;;16.33;68.77;100578.25;5091918;28;19935;-52
2022/05/27 01:45:49;;;;;;;;;;;;;;;16.38;68.90;100589.25;5091938;28;19928;-52
2022/05/27 01:48:19;;;;;;;;;;;;;;;16.43;68.87;100584.22;5092829;28;19924;-54
2022/05/27 01:50:48;;;;;;;;;;;;;;;16.37;69.22;100593.22;5092344;28;19951;-52
2022/05/27 01:53:19;;;;;;;;;;;;;;;16.26;69.89;100580.81;5092611;28;19928;-54
2022/05/27 01:55:53;;;;;;;;;;;;;;;16.20;70.27;100575.41;5092421;28;19931;-52
2022/05/27 01:58:21;;;;;;;;;;;;;;;16.24;70.13;100573.53;5090583;28;19947;-53
2022/05/27 02:00:50;;;;;;;;;;;;;;;16.22;70.01;100578.69;5092374;28;19924;-55
2022/05/27 02:03:20;;;;;;;;;;;;;;;16.23;70.08;100574.72;5092502;28;19924;-52
2022/05/27 02:05:49;;;;;;;;;;;;;;;16.21;70.38;100562.19;5092207;28;19924;-52
2022/05/27 02:08:18;;;;;;;;;;;;;;;16.18;70.56;100563.72;5092185;28;19924;-52
2022/05/27 02:10:52;;;;;;;;;;;;;;;16.19;70.67;100559.75;5091800;28;19931;-54
2022/05/27 02:13:23;;;;;;;;;;;;;;;16.27;70.52;100562.78;5091877;28;19939;-54
2022/05/27 02:15:52;;;;;;;;;;;;;;;16.26;70.58;100572.41;5092323;28;20038;-54
2022/05/27 02:18:22;;;;;;;;;;;;;;;16.21;70.83;100557.41;5092890;28;19924;-53
2022/05/27 02:20:54;;;;;;;;;;;;;;;16.10;71.11;100559.00;5095596;28;19924;-55
2022/05/27 02:23:23;;;;;;;;;;;;;;;16.05;71.61;100576.09;5095677;28;19931;-52
2022/05/27 02:25:51;;;;;;;;;;;;;;;15.97;71.36;100565.78;5095772;28;19924;-55
2022/05/27 02:28:21;;;;;;;;;;;;;;;15.95;71.65;100565.31;5094735;28;19924;-53
2022/05/27 02:30:51;;;;;;;;;;;;;;;15.86;72.26;100565.44;5095147;28;19931;-53
2022/05/27 02:36:09;;;;;;;;;;;;;;;15.82;72.15;100564.47;5102699;28;19924;-53
2022/05/27 02:38:36;;;;;;;;;;;;;;;15.90;71.42;100557.13;5095542;28;19939;-53
2022/05/27 02:41:08;;;;;;;;;;;;;;;15.90;71.99;100557.13;5095553;28;19924;-52
2022/05/27 02:43:44;;;;;;;;;;;;;;;15.94;71.87;100558.06;5094732;28;20417;-55
2022/05/27 02:46:14;;;;;;;;;;;;;;;15.95;71.76;100563.31;5095353;28;19924;-54
2022/05/27 02:48:46;;;;;;;;;;;;;;;15.86;71.84;100564.63;5095541;28;20407;-52
2022/05/27 02:51:17;;;;;;;;;;;;;;;15.90;72.03;100568.38;5095943;28;20391;-53
2022/05/27 02:53:47;;;;;;;;;;;;;;;15.90;72.30;100557.94;5095148;28;19931;-52
2022/05/27 02:56:18;;;;;;;;;;;;;;;15.76;72.42;100561.06;5095373;28;20284;-55
2022/05/27 02:58:45;;;;;;;;;;;;;;;15.81;72.33;100549.63;5093989;28;19924;-52
2022/05/27 03:01:12;;;;;;;;;;;;;;;15.87;72.02;100558.63;5095305;28;19924;-52
2022/05/27 03:03:42;;;;;;;;;;;;;;;15.85;71.93;100548.91;5094847;28;19924;-52
2022/05/27 03:06:19;;;;;;;;;;;;;;;15.86;71.76;100556.19;5094808;28;19928;-52
2022/05/27 03:08:51;;;;;;;;;;;;;;;15.85;72.23;100546.91;5095017;28;19951;-52
2022/05/27 03:11:21;;;;;;;;;;;;;;;15.89;72.14;100558.28;5094525;28;19924;-51
2022/05/27 03:13:54;;;;;;;;;;;;;;;15.83;72.74;100555.72;5094274;28;19924;-52
2022/05/27 03:16:26;;;;;;;;;;;;;;;15.86;73.20;100559.00;5094961;28;19931;-54
2022/05/27 03:19:00;;;;;;;;;;;;;;;15.91;73.39;100561.56;5094723;28;20276;-52
2022/05/27 03:21:31;;;;;;;;;;;;;;;15.80;73.42;100559.22;5094947;28;19924;-53
2022/05/27 03:24:07;;;;;;;;;;;;;;;15.73;73.90;100555.34;5094782;28;19924;-53
2022/05/27 03:26:41;;;;;;;;;;;;;;;15.67;74.54;100553.91;5093085;28;19924;-52
2022/05/27 03:29:15;;;;;;;;;;;;;;;15.72;74.56;100557.31;5094415;28;19931;-52
2022/05/27 03:31:45;;;;;;;;;;;;;;;15.59;75.43;100556.44;5094126;28;19924;-52
2022/05/27 03:34:15;;;;;;;;;;;;;;;15.56;75.83;100559.09;5094841;28;19924;-51
2022/05/27 03:36:46;;;;;;;;;;;;;;;15.55;76.16;100563.09;5094238;28;19924;-52
2022/05/27 03:39:16;;;;;;;;;;;;;;;15.53;76.66;100569.03;5094658;28;19931;-54
2022/05/27 03:41:46;;;;;;;;;;;;;;;15.52;76.59;100573.03;5088275;28;19924;-54
2022/05/27 03:44:18;;;;;;;;;;;;;;;15.51;77.04;100573.38;5074318;28;19924;-52
2022/05/27 03:46:48;;;;;;;;;;;;;;;15.56;76.80;100571.19;5073995;28;20380;-53
2022/05/27 03:49:15;;;;;;;;;;;;;;;15.55;77.02;100580.75;5074218;28;19925;-52
2022/05/27 03:51:49;;;;;;;;;;;;;;;15.56;77.18;100575.94;5073778;28;19924;-52
2022/05/27 03:54:16;;;;;;;;;;;;;;;15.45;77.27;100569.94;5074265;28;20396;-54
2022/05/27 03:56:43;;;;;;;;;;;;;;;15.47;77.41;100570.41;5080724;28;19931;-55
2022/05/27 03:59:11;;;;;;;;;;;;;;;15.35;77.81;100581.59;5094381;28;20273;-53
2022/05/27 04:01:39;;;;;;;;;;;;;;;15.40;77.58;100596.25;5093873;28;19924;-52
2022/05/27 04:04:08;;;;;;;;;;;;;;;15.42;77.64;100582.69;5094146;28;19932;-52
2022/05/27 04:06:35;;;;;;;;;;;;;;;15.51;77.62;100590.22;5093931;28;19924;-52
2022/05/27 04:09:03;;;;;;;;;;;;;;;15.54;77.68;100595.13;5093952;28;19924;-54
2022/05/27 04:11:30;;;;;;;;;;;;;;;15.59;77.66;100614.56;5089894;28;20384;-54
2022/05/27 04:13:57;;;;;;;;;;;;;;;15.55;74.53;100611.63;5073532;28;19928;-54
2022/05/27 04:16:25;;;;;;;;;;;;;;;15.46;73.53;100624.13;5073391;28;20331;-52
2022/05/27 04:18:52;;;;;;;;;;;;;;;15.34;72.54;100614.47;5073375;28;19925;-52
2022/05/27 04:21:18;;;;;;;;;;;;;;;15.28;73.16;100615.84;5073396;28;19924;-52
2022/05/27 04:23:45;;;;;;;;;;;;;;;15.24;73.21;100620.47;5073426;28;19924;-54
2022/05/27 04:26:14;;;;;;;;;;;;;;;15.22;73.04;100611.59;5079796;28;19924;-52
2022/05/27 04:28:41;;;;;;;;;;;;;;;15.16;73.12;100616.59;5093505;28;19924;-53
2022/05/27 04:31:08;;;;;;;;;;;;;;;15.26;73.35;100611.72;5093724;28;19924;-51
2022/05/27 04:33:35;;;;;;;;;;;;;;;15.25;72.88;100612.91;5093557;28;19924;-52
2022/05/27 04:36:02;;;;;;;;;;;;;;;15.31;72.92;100617.16;5093394;28;20376;-54
2022/05/27 04:38:29;;;;;;;;;;;;;;;15.38;72.43;100615.41;5093675;28;20406;-53
2022/05/27 04:40:57;;;;;;;;;;;;;;;15.40;72.17;100606.66;5092088;28;19931;-52
2022/05/27 04:43:25;;;;;;;;;;;;;;;15.40;72.16;100607.47;5093508;28;20395;-55
2022/05/27 04:45:52;;;;;;;;;;;;;;;15.47;71.08;100606.09;5093120;28;19924;-52
2022/05/27 04:48:19;;;;;;;;;;;;;;;15.50;71.03;100608.25;5093506;28;19931;-52
2022/05/27 04:50:46;;;;;;;;;;;;;;;15.45;69.89;100608.44;5092777;28;19931;-52
2022/05/27 04:53:14;;;;;;;;;;;;;;;15.33;70.21;100607.22;5093200;28;19931;-54
2022/05/27 04:55:41;;;;;;;;;;;;;;;15.36;70.39;100612.13;5091859;28;19931;-53
2022/05/27 04:58:11;;;;;;;;;;;;;;;15.44;70.48;100607.63;5092809;28;19928;-52
2022/05/27 05:00:41;;;;;;;;;;;;;;;15.38;70.65;100618.22;5092730;28;19935;-54
2022/05/27 05:03:09;;;;;;;;;;;;;;;15.43;70.18;100612.41;5092786;28;19935;-55
2022/05/27 05:05:36;;;;;;;;;;;;;;;15.31;70.91;100615.16;5093085;28;19924;-52
2022/05/27 05:08:05;;;;;;;;;;;;;;;15.27;71.27;100622.63;5090698;28;19928;-52
2022/05/27 05:10:32;;;;;;;;;;;;;;;15.09;72.72;100610.69;5091845;28;19924;-53
2022/05/27 05:12:59;;;;;;;;;;;;;;;15.04;73.20;100615.72;5092554;28;20307;-54
2022/05/27 05:15:26;;;;;;;;;;;;;;;14.95;73.51;100619.41;5092748;28;19924;-51
2022/05/27 05:17:55;;;;;;;;;;;;;;;14.99;73.57;100613.91;5092503;28;19925;-52
2022/05/27 05:20:24;;;;;;;;;;;;;;;14.93;73.79;100607.69;5092743;28;19931;-55
2022/05/27 05:22:51;;;;;;;;;;;;;;;14.93;74.47;100607.69;5091944;28;20019;-55
2022/05/27 05:25:18;;;;;;;;;;;;;;;14.98;74.16;100617.88;5090585;28;20407;-54
2022/05/27 05:27:45;;;;;;;;;;;;;;;15.05;74.49;100600.50;5092082;28;19931;-53
2022/05/27 05:30:14;;;;;;;;;;;;;;;15.13;73.85;100610.84;5092305;28;19931;-53
2022/05/27 05:32:41;;;;;;;;;;;;;;;14.88;74.63;100599.47;5092601;28;19924;-55
2022/05/27 05:35:11;;;;;;;;;;;;;;;14.92;74.50;100608.03;5091860;28;19935;-52
2022/05/27 05:37:38;;;;;;;;;;;;;;;14.98;74.80;100607.47;5092607;28;19924;-52
2022/05/27 05:40:06;;;;;;;;;;;;;;;15.05;74.77;100614.53;5090798;28;19928;-52
2022/05/27 05:42:36;;;;;;;;;;;;;;;15.10;73.98;100617.13;5092053;28;19924;-53
2022/05/27 05:45:03;;;;;;;;;;;;;;;15.12;73.50;100618.44;5091758;28;19931;-52
2022/05/27 05:47:30;;;;;;;;;;;;;;;15.24;73.56;100612.06;5092175;28;19924;-53
2022/05/27 05:49:57;;;;;;;;;;;;;;;15.36;72.92;100611.31;5092023;28;19939;-54
2022/05/27 05:52:26;;;;;;;;;;;;;;;15.46;72.32;100610.09;5092018;28;20324;-55
2022/05/27 05:54:53;;;;;;;;;;;;;;;15.36;72.81;100612.13;5093707;28;19931;-52
2022/05/27 05:57:20;;;;;;;;;;;;;;;15.20;72.77;100609.16;5096032;28;19931;-54
2022/05/27 05:59:47;;;;;;;;;;;;;;;15.33;72.82;100612.00;5095799;28;19925;-53
2022/05/27 06:02:14;;;;;;;;;;;;;;;15.51;72.38;100618.28;5095493;28;20398;-53
2022/05/27 06:04:41;;;;;;;;;;;;;;;15.60;72.54;100624.63;5096026;28;19946;-53
2022/05/27 06:07:09;;;;;;;;;;;;;;;15.76;71.75;100625.66;5095524;28;20382;-54
2022/05/27 06:09:37;;;;;;;;;;;;;;;15.86;71.54;100629.22;5079967;28;20368;-54
2022/05/27 06:12:04;;;;;;;;;;;;;;;15.85;71.69;100638.81;5074800;28;19931;-54
2022/05/27 06:14:31;;;;;;;;;;;;;;;16.02;71.06;100647.88;5078491;28;20315;-55
2022/05/27 06:16:59;;;;;;;;;;;;;;;16.14;69.94;100640.63;5091227;28;19928;-54
2022/05/27 06:19:26;;;;;;;;;;;;;;;16.10;70.14;100637.69;5095647;28;20283;-55
2022/05/27 06:21:53;;;;;;;;;;;;;;;16.24;69.87;100640.19;5089746;28;19931;-52
2022/05/27 06:24:20;;;;;;;;;;;;;;;16.42;69.08;100647.25;5084546;28;19924;-53
2022/05/27 06:26:48;;;;;;;;;;;;;;;16.49;69.03;100643.84;5093781;28;20273;-54
2022/05/27 06:34:44;;;;;;;;;;;;;;;16.70;68.10;100640.94;5081926;28;19924;-52
2022/05/27 06:37:15;;;;;;;;;;;;;;;16.90;67.89;100638.34;5074657;28;19925;-52
2022/05/27 06:39:45;;;;;;;;;;;;;;;17.01;66.93;100629.09;5075322;28;19924;-52
2022/05/27 06:42:15;;;;;;;;;;;;;;;17.15;66.52;100644.78;5074957;28;19924;-53
2022/05/27 06:44:42;;;;;;;;;;;;;;;17.17;66.92;100645.22;5074911;28;19924;-52
2022/05/27 06:47:09;;;;;;;;;;;;;;;17.17;66.47;100645.22;5079738;28;20285;-52
2022/05/27 06:49:37;;;;;;;;;;;;;;;17.40;65.57;100645.53;5087352;28;19946;-55
2022/05/27 06:52:07;;;;;;;;;;;;;;;17.35;64.93;100651.41;5094102;28;19924;-52
2022/05/27 06:54:35;;;;;;;;;;;;;;;17.29;65.09;100644.41;5095411;28;19924;-55
2022/05/27 06:57:02;;;;;;;;;;;;;;;17.23;65.62;100650.25;5094315;28;19931;-52
2022/05/27 06:59:30;;;;;;;;;;;;;;;17.23;66.22;100647.44;5093948;28;19928;-54
2022/05/27 07:01:57;;;;;;;;;;;;;;;17.25;65.98;100644.28;5090563;28;19935;-52
2022/05/27 07:04:24;;;;;;;;;;;;;;;17.28;64.99;100649.19;5093620;28;19928;-52
2022/05/27 07:06:51;;;;;;;;;;;;;;;17.20;66.19;100659.44;5090596;28;19924;-55
2022/05/27 07:09:19;;;;;;;;;;;;;;;17.35;66.09;100652.22;5093723;28;20380;-53
2022/05/27 07:11:48;;;;;;;;;;;;;;;17.34;65.87;100653.41;5092869;28;19925;-52
2022/05/27 07:14:15;;;;;;;;;;;;;;;17.40;66.15;100653.97;5074580;28;19925;-53
2022/05/27 07:16:44;;;;;;;;;;;;;;;17.77;65.25;100651.84;5078046;28;19935;-52
2022/05/27 07:19:11;;;;;;;;;;;;;;;17.89;63.47;100658.63;5112389;28;19923;-52
2022/05/27 07:21:40;;;;;;;;;;;;;;;18.02;62.77;100648.94;5112170;28;19928;-54
2022/05/27 07:24:09;;;;;;;;;;;;;;;18.31;62.12;100647.72;5114592;28;20387;-55
2022/05/27 07:26:37;;;;;;;;;;;;;;;18.56;61.73;100645.53;5110880;28;19931;-52
2022/05/27 07:29:04;;;;;;;;;;;;;;;18.52;61.02;100653.09;5114560;28;19924;-55
2022/05/27 07:31:31;;;;;;;;;;;;;;;18.56;59.99;100651.19;5116475;27;19931;-52
2022/05/27 07:34:00;;;;;;;;;;;;;;;18.90;59.08;100654.44;5112643;28;19931;-53
2022/05/27 07:36:30;;;;;;;;;;;;;;;19.08;58.28;100656.88;5112004;28;19932;-53
2022/05/27 07:38:57;;;;;;;;;;;;;;;19.38;58.13;100657.13;5110810;27;20379;-54
2022/05/27 07:41:24;;;;;;;;;;;;;;;20.00;58.35;100654.41;5113292;28;20284;-56
2022/05/27 07:43:51;;;;;;;;;;;;;;;20.58;55.83;100654.28;5114256;28;19932;-55
2022/05/27 07:46:19;;;;;;;;;;;;;;;20.60;53.65;100653.88;5111927;28;20351;-53
2022/05/27 07:48:46;;;;;;;;;;;;;;;20.91;54.51;100649.94;5113016;28;19931;-53
2022/05/27 07:51:15;;;;;;;;;;;;;;;21.15;52.32;100654.34;5111999;28;20290;-55
2022/05/27 07:53:42;;;;;;;;;;;;;;;21.57;52.06;100644.84;5114741;28;19924;-55
2022/05/27 07:56:10;;;;;;;;;;;;;;;21.48;50.25;100647.97;5112913;28;19924;-55
2022/05/27 07:58:37;;;;;;;;;;;;;;;21.46;51.78;100646.69;5111980;28;20302;-53
2022/05/27 08:01:04;;;;;;;;;;;;;;;21.83;50.03;100646.75;5112318;28;20324;-55
2022/05/27 08:03:31;;;;;;;;;;;;;;;21.57;49.86;100646.88;5110184;28;19928;-54
2022/05/27 08:05:58;;;;;;;;;;;;;;;21.59;50.48;100647.28;5099243;28;19924;-56
2022/05/27 08:08:29;;;;;;;;;;;;;;;21.43;50.63;100648.28;5114304;28;19923;-56
2022/05/27 08:10:56;;;;;;;;;;;;;;;21.30;49.79;100641.22;5113159;28;19935;-55
2022/05/27 08:13:23;;;;;;;;;;;;;;;21.27;50.30;100650.47;5112113;28;20010;-55
2022/05/27 08:15:52;;;;;;;;;;;;;;;21.23;50.64;100649.59;5111727;28;19927;-54
2022/05/27 08:18:19;;;;;;;;;;;;;;;21.76;50.08;100641.03;5112406;28;19924;-54
2022/05/27 08:20:47;;;;;;;;;;;;;;;22.74;47.74;100642.81;5112206;28;19924;-55
2022/05/27 08:23:15;;;;;;;;;;;;;;;22.71;46.75;100647.25;5110965;28;20264;-56
2022/05/27 08:25:43;;;;;;;;;;;;;;;24.25;45.07;100644.38;5111763;28;19978;-53
2022/05/27 08:28:10;;;;;;;;;;;;;;;25.63;40.66;100636.13;5112900;28;20406;-56
2022/05/27 08:30:39;;;;;;;;;;;;;;;26.65;38.74;100637.19;5111443;28;19924;-54
2022/05/27 08:33:07;;;;;;;;;;;;;;;27.59;38.86;100637.03;5109806;28;19939;-55
2022/05/27 08:38:21;;;;;;;;;;;;;;;29.98;33.88;100627.63;5115089;28;19927;-56
2022/05/27 08:41:06;;;;;;;;;;;;;;;30.31;30.23;100626.47;5113358;28;19924;-57
2022/05/27 08:43:37;;;;;;;;;;;;;;;30.76;29.59;100630.69;5111348;28;19924;-55
2022/05/27 08:46:11;;;;;;;;;;;;;;;30.41;29.90;100629.50;5112415;28;20284;-55
2022/05/27 08:48:40;;;;;;;;;;;;;;;31.15;28.67;100629.66;5110918;28;19924;-55
2022/05/27 08:51:12;;;;;;;;;;;;;;;31.18;29.94;100630.81;5111928;28;19924;-56
2022/05/27 08:53:43;;;;;;;;;;;;;;;30.74;29.91;100616.78;5111697;28;19932;-55
2022/05/27 09:01:50;;;;;;;;;;;;;;;30.99;28.56;100629.69;5108357;28;19928;-54
2022/05/27 09:04:24;;;;;;;;;;;;;;;31.42;27.61;100604.69;5104992;28;20380;-55
2022/05/27 09:06:53;;;;;;;;;;;;;;;30.74;27.75;100613.06;5111935;28;19928;-54
2022/05/27 09:09:24;;;;;;;;;;;;;;;29.70;30.26;100621.28;5109059;28;19924;-55
2022/05/27 09:12:06;;;;;;;;;;;;;;;30.69;28.98;100611.56;5112708;28;19928;-55
2022/05/27 09:14:36;;;;;;;;;;;;;;;32.01;27.40;100616.94;5108353;28;20298;-55
2022/05/27 09:17:05;;;;;;;;;;;;;;;32.76;26.88;100611.59;5108148;28;20364;-52
2022/05/27 09:19:38;;;;;;;;;;;;;;;33.36;25.25;100623.03;5104636;28;20395;-56
2022/05/27 09:22:10;;;;;;;;;;;;;;;32.23;26.69;100606.31;5109434;28;19924;-56
2022/05/27 09:24:42;;;;;;;;;;;;;;;30.64;27.89;100620.72;5111421;28;19924;-55
2022/05/27 09:27:13;;;;;;;;;;;;;;;29.98;28.98;100616.16;5110856;28;20299;-55
2022/05/27 09:29:53;;;;;;;;;;;;;;;28.13;30.96;100617.91;5117426;28;20299;-55
2022/05/27 09:32:25;;;;;;;;;;;;;;;29.10;30.18;100616.28;5114218;28;20385;-52
2022/05/27 09:34:52;;;;;;;;;;;;;;;29.87;28.95;100622.13;5114708;28;19934;-53
2022/05/27 09:37:21;;;;;;;;;;;;;;;28.63;29.35;100622.03;5113467;28;19931;-53
2022/05/27 09:39:49;;;;;;;;;;;;;;;27.82;31.16;100628.53;5116475;28;19930;-55
2022/05/27 09:42:25;;;;;;;;;;;;;;;26.77;33.32;100632.97;5113412;28;19931;-55
2022/05/27 09:44:53;;;;;;;;;;;;;;;27.00;33.73;100646.66;5116200;28;19928;-55
2022/05/27 09:47:21;;;;;;;;;;;;;;;26.12;33.67;100639.16;5113782;27;20371;-56
2022/05/27 09:49:54;;;;;;;;;;;;;;;25.79;34.41;100632.78;5114221;28;19943;-55
2022/05/27 09:52:23;;;;;;;;;;;;;;;25.20;35.46;100643.97;5113818;28;19923;-54
2022/05/27 09:54:51;;;;;;;;;;;;;;;25.89;34.89;100633.97;5112695;28;19931;-53
2022/05/27 09:57:25;;;;;;;;;;;;;;;25.21;35.29;100639.94;5116327;28;20371;-57
2022/05/27 09:59:56;;;;;;;;;;;;;;;24.90;35.97;100642.41;5115335;28;19927;-53
2022/05/27 10:02:32;;;;;;;;;;;;;;;24.48;36.57;100646.84;5112585;28;20383;-52
2022/05/27 10:06:16;;;;;;;;;;;;;;;25.08;36.74;100648.88;5023740;28;19939;-56
2022/05/27 10:08:44;;;;;;;;;;;;;;;25.07;35.66;100650.13;5023227;28;19927;-52
2022/05/27 10:11:24;;;;;;;;;;;;;;;26.44;34.01;100646.72;5025725;28;19932;-52
2022/05/27 10:14:06;;;;;;;;;;;;;;;26.55;32.53;100633.13;5021657;28;20246;-54
2022/05/27 10:16:34;;;;;;;;;;;;;;;26.07;32.15;100642.44;5019452;28;19933;-52
2022/05/27 10:19:10;;;;;;;;;;;;;;;26.31;32.09;100650.06;5022496;28;19939;-55
2022/05/27 10:21:55;;;;;;;;;;;;;;;25.89;31.90;100645.41;5072833;28;19926;-53
2022/05/27 10:24:25;;;;;;;;;;;;;;;26.22;31.94;100649.69;4996819;28;20380;-53
2022/05/27 10:27:02;;;;;;;;;;;;;;;26.81;30.71;100653.75;5026211;28;19926;-57
2022/05/27 10:29:29;;;;;;;;;;;;;;;27.26;30.44;100650.91;5026152;28;19932;-57
2022/05/27 10:32:01;;;;;;;;;;;;;;;29.16;29.32;100650.22;5026152;28;19925;-53
2022/05/27 10:34:43;;;;;;;;;;;;;;;30.83;25.68;100644.09;5024893;28;19933;-57
2022/05/27 10:37:22;;;;;;;;;;;;;;;32.76;23.59;100626.81;5094294;28;19928;-55
2022/05/27 10:39:58;;;;;;;;;;;;;;;33.76;23.07;100633.13;5109871;28;19943;-54
2022/05/27 10:42:33;;;;;;;;;;;;;;;34.99;20.67;100626.09;5109609;28;20414;-56
2022/05/27 10:45:10;;;;;;;;;;;;;;;36.27;20.10;100622.22;5012263;28;19929;-54
2022/05/27 10:47:51;;;;;;;;;;;;;;;36.40;19.48;100622.00;5051231;28;20372;-53
2022/05/27 10:50:23;;;;;;;;;;;;;;;36.63;18.91;100626.25;5109546;28;19924;-56
2022/05/27 10:53:00;;;;;;;;;;;;;;;36.62;18.45;100618.81;5109500;28;19924;-55
2022/05/27 10:55:35;;;;;;;;;;;;;;;35.21;20.34;100634.66;5109404;28;19935;-57
2022/05/27 11:04:03;;;;;;;;;;;;;;;31.11;23.25;100640.47;5115706;28;19932;-53
2022/05/27 11:06:44;;;;;;;;;;;;;;;30.54;23.35;100639.06;5108830;28;19924;-54
2022/05/27 11:09:20;;;;;;;;;;;;;;;29.91;23.85;100648.72;5108800;28;20035;-54
2022/05/27 11:11:51;;;;;;;;;;;;;;;30.41;23.90;100653.34;5108872;28;20309;-53
2022/05/27 11:17:19;;;;;;;;;;;;;;;28.67;25.23;100630.59;5099723;28;19924;-56
2022/05/27 11:20:00;;;;;;;;;;;;;;;28.73;25.67;100640.31;5021627;28;19926;-54
2022/05/27 11:22:35;;;;;;;;;;;;;;;30.26;24.38;100640.50;5011574;28;19925;-54
2022/05/27 11:25:09;;;;;;;;;;;;;;;31.43;23.01;100633.03;5012320;28;19932;-54
2022/05/27 11:27:45;;;;;;;;;;;;;;;32.65;21.26;100623.47;5055094;28;20287;-53
2022/05/27 11:30:20;;;;;;;;;;;;;;;33.09;21.52;100626.50;5095297;28;19931;-55
2022/05/27 11:33:07;;;;;;;;;;;;;;;33.52;20.94;100630.72;5095371;28;19947;-56
2022/05/27 11:35:43;;;;;;;;;;;;;;;33.50;20.59;100627.50;5095364;28;20387;-55
2022/05/27 11:38:20;;;;;;;;;;;;;;;31.89;20.92;100630.81;5094942;28;19931;-53
2022/05/27 11:41:01;;;;;;;;;;;;;;;30.13;22.46;100631.78;5095380;28;19931;-56
2022/05/27 11:43:37;;;;;;;;;;;;;;;29.33;23.79;100626.91;5085919;28;20288;-56
2022/05/27 11:46:14;;;;;;;;;;;;;;;28.86;24.48;100637.63;5094553;28;19931;-56
2022/05/27 11:48:48;;;;;;;;;;;;;;;29.00;26.03;100631.63;5094811;28;20364;-55
2022/05/27 11:51:20;;;;;;;;;;;;;;;28.24;24.89;100632.03;5013202;28;19926;-56
2022/05/27 11:53:59;;;;;;;;;;;;;;;27.54;26.38;100627.66;5067766;28;19924;-54
2022/05/27 11:56:33;;;;;;;;;;;;;;;26.64;26.90;100639.19;5044665;28;19934;-56
2022/05/27 11:59:03;;;;;;;;;;;;;;;25.78;28.88;100639.72;5007466;28;20685;-56
2022/05/27 12:01:36;;;;;;;;;;;;;;;25.52;29.00;100643.91;5045814;28;19931;-55
2022/05/27 12:04:07;;;;;;;;;;;;;;;27.28;27.69;100637.00;5077636;28;19929;-53
2022/05/27 12:06:38;;;;;;;;;;;;;;;28.73;26.57;100638.25;4993947;28;19932;-56
2022/05/27 12:09:08;;;;;;;;;;;;;;;29.84;23.49;100626.72;5017451;28;19941;-55
2022/05/27 12:11:39;;;;;;;;;;;;;;;30.80;23.36;100639.22;4986559;28;19926;-56
2022/05/27 12:14:13;;;;;;;;;;;;;;;30.44;22.36;100625.75;5008789;28;19926;-56
2022/05/27 12:16:42;;;;;;;;;;;;;;;29.57;23.23;100618.25;5012616;28;20396;-53
2022/05/27 12:19:13;;;;;;;;;;;;;;;28.91;25.11;100631.38;5002033;28;19930;-56
2022/05/27 12:21:42;;;;;;;;;;;;;;;28.63;24.65;100632.72;5003071;28;19934;-55
2022/05/27 12:24:17;;;;;;;;;;;;;;;28.58;24.74;100622.56;5062519;28;19931;-56
2022/05/27 12:26:45;;;;;;;;;;;;;;;29.34;24.30;100630.59;4997131;28;19934;-55
2022/05/27 12:29:13;;;;;;;;;;;;;;;28.90;23.82;100629.78;5016018;28;19931;-56
2022/05/27 12:31:40;;;;;;;;;;;;;;;29.15;23.76;100629.34;5007697;28;19948;-56
2022/05/27 12:34:25;;;;;;;;;;;;;;;28.94;22.89;100627.66;5001688;28;19930;-52
2022/05/27 12:36:55;;;;;;;;;;;;;;;29.94;22.37;100622.81;5026593;28;19926;-53
2022/05/27 12:39:24;;;;;;;;;;;;;;;29.81;22.23;100615.31;5006577;28;19933;-53
2022/05/27 12:42:06;;;;;;;;;;;;;;;30.40;21.99;100611.47;5018851;28;19924;-55
2022/05/27 12:44:33;;;;;;;;;;;;;;;30.52;22.61;100625.13;5007550;28;19933;-56
2022/05/27 12:47:01;;;;;;;;;;;;;;;30.28;21.72;100615.84;4972736;28;20316;-56
2022/05/27 12:49:34;;;;;;;;;;;;;;;29.75;21.27;100618.69;4973986;28;19930;-56
2022/05/27 12:52:03;;;;;;;;;;;;;;;28.91;22.22;100629.31;5010500;28;20309;-55
2022/05/27 12:54:49;;;;;;;;;;;;;;;29.20;22.25;100628.00;5009383;28;19933;-54
2022/05/27 13:03:08;;;;;;;;;;;;;;;27.40;23.45;100629.91;5014892;28;19930;-56
2022/05/27 13:05:53;;;;;;;;;;;;;;;27.35;24.18;100624.66;5007971;28;19937;-56
2022/05/27 13:08:21;;;;;;;;;;;;;;;27.60;24.93;100615.78;5002462;28;19933;-56
2022/05/27 13:10:50;;;;;;;;;;;;;;;28.15;24.92;100611.75;5010274;28;19925;-56
2022/05/27 13:13:22;;;;;;;;;;;;;;;28.69;24.45;100623.16;5008248;28;19926;-56
2022/05/27 13:15:54;;;;;;;;;;;;;;;29.09;24.24;100629.00;5006441;28;20302;-56
2022/05/27 13:18:36;;;;;;;;;;;;;;;29.31;24.58;100628.59;5010348;28;19926;-56
2022/05/27 13:21:05;;;;;;;;;;;;;;;29.70;23.63;100621.28;5006076;28;19925;-55
2022/05/27 13:23:33;;;;;;;;;;;;;;;29.92;22.87;100625.31;5049433;28;20241;-53
2022/05/27 13:26:05;;;;;;;;;;;;;;;29.80;22.72;100625.97;5048550;28;19933;-52